sensor_id;sensor_type;location;lat;lon;timestamp;temperature;humidity
41630;DHT22;27322;49.488;8.480;2022-11-30T00:01:11;9.10;99.90
41630;DHT22;27322;49.488;8.480;2022-11-30T00:03:38;9.10;99.90
41630;DHT22;27322;49.488;8.480;2022-11-30T00:06:05;9.10;99.90
41630;DHT22;27322;49.488;8.480;2022-11-30T00:08:31;9.10;99.90
41630;DHT22;27322;49.488;8.480;2022-11-30T00:10:57;9.10;99.90
41630;DHT22;27322;49.488;8.480;2022-11-30T00:13:22;9.10;99.90
41630;DHT22;27322;49.488;8.480;2022-11-30T00:15:48;9.00;99.90
41630;DHT22;27322;49.488;8.480;2022-11-30T00:18:13;9.00;99.90
41630;DHT22;27322;49.488;8.480;2022-11-30T00:20:42;9.00;99.90
41630;DHT22;27322;49.488;8.480;2022-11-30T00:23:08;9.00;99.90
41630;DHT22;27322;49.488;8.480;2022-11-30T00:25:35;9.00;99.90
41630;DHT22;27322;49.488;8.480;2022-11-30T00:28:01;9.00;99.90
41630;DHT22;27322;49.488;8.480;2022-11-30T00:30:27;9.00;99.90
41630;DHT22;27322;49.488;8.480;2022-11-30T00:32:56;8.90;99.90
41630;DHT22;27322;49.488;8.480;2022-11-30T00:35:22;9.00;99.90
41630;DHT22;27322;49.488;8.480;2022-11-30T00:37:48;8.90;99.90
41630;DHT22;27322;49.488;8.480;2022-11-30T00:40:13;8.90;99.90
41630;DHT22;27322;49.488;8.480;2022-11-30T00:42:39;8.90;99.90
41630;DHT22;27322;49.488;8.480;2022-11-30T00:45:05;8.90;99.90
41630;DHT22;27322;49.488;8.480;2022-11-30T00:47:31;8.90;99.90
41630;DHT22;27322;49.488;8.480;2022-11-30T00:49:56;8.90;99.90
41630;DHT22;27322;49.488;8.480;2022-11-30T00:52:22;8.90;99.90
41630;DHT22;27322;49.488;8.480;2022-11-30T00:54:47;8.90;99.90
41630;DHT22;27322;49.488;8.480;2022-11-30T00:57:13;8.90;99.90
41630;DHT22;27322;49.488;8.480;2022-11-30T00:59:38;8.90;99.90
41630;DHT22;27322;49.488;8.480;2022-11-30T01:02:04;8.90;99.90
41630;DHT22;27322;49.488;8.480;2022-11-30T01:04:29;8.90;99.90
41630;DHT22;27322;49.488;8.480;2022-11-30T01:06:55;8.90;99.90
41630;DHT22;27322;49.488;8.480;2022-11-30T01:09:21;8.90;99.90
41630;DHT22;27322;49.488;8.480;2022-11-30T01:11:46;8.90;99.90
41630;DHT22;27322;49.488;8.480;2022-11-30T01:14:12;8.80;99.90
41630;DHT22;27322;49.488;8.480;2022-11-30T01:16:37;8.80;99.90
41630;DHT22;27322;49.488;8.480;2022-11-30T01:19:03;8.90;99.90
41630;DHT22;27322;49.488;8.480;2022-11-30T01:21:29;8.80;99.90
41630;DHT22;27322;49.488;8.480;2022-11-30T01:23:55;8.80;99.90
41630;DHT22;27322;49.488;8.480;2022-11-30T01:26:21;8.80;99.90
41630;DHT22;27322;49.488;8.480;2022-11-30T01:28:51;8.80;99.90
41630;DHT22;27322;49.488;8.480;2022-11-30T01:31:18;8.80;99.90
41630;DHT22;27322;49.488;8.480;2022-11-30T01:33:51;8.80;99.90
41630;DHT22;27322;49.488;8.480;2022-11-30T01:36:20;8.80;99.90
41630;DHT22;27322;49.488;8.480;2022-11-30T01:38:48;8.80;99.90
41630;DHT22;27322;49.488;8.480;2022-11-30T01:43:54;8.80;99.90
41630;DHT22;27322;49.488;8.480;2022-11-30T01:54:15;8.80;99.90
41630;DHT22;27322;49.488;8.480;2022-11-30T01:56:49;8.80;99.90
41630;DHT22;27322;49.488;8.480;2022-11-30T01:59:17;8.80;99.90
41630;DHT22;27322;49.488;8.480;2022-11-30T02:01:44;8.80;99.90
41630;DHT22;27322;49.488;8.480;2022-11-30T02:04:31;8.80;99.90
41630;DHT22;27322;49.488;8.480;2022-11-30T02:06:58;8.80;99.90
41630;DHT22;27322;49.488;8.480;2022-11-30T02:09:25;8.80;99.90
41630;DHT22;27322;49.488;8.480;2022-11-30T02:11:52;8.70;99.90
41630;DHT22;27322;49.488;8.480;2022-11-30T02:16:57;8.70;99.90
41630;DHT22;27322;49.488;8.480;2022-11-30T02:25:02;8.70;99.90
41630;DHT22;27322;49.488;8.480;2022-11-30T02:28:06;8.70;99.90
41630;DHT22;27322;49.488;8.480;2022-11-30T02:30:37;8.70;99.90
41630;DHT22;27322;49.488;8.480;2022-11-30T02:33:10;8.70;99.90
41630;DHT22;27322;49.488;8.480;2022-11-30T02:35:40;8.70;99.90
41630;DHT22;27322;49.488;8.480;2022-11-30T02:38:07;8.70;99.90
41630;DHT22;27322;49.488;8.480;2022-11-30T02:40:33;8.70;99.90
41630;DHT22;27322;49.488;8.480;2022-11-30T02:43:00;8.70;99.90
41630;DHT22;27322;49.488;8.480;2022-11-30T02:45:58;8.70;99.90
41630;DHT22;27322;49.488;8.480;2022-11-30T02:48:39;8.70;99.90
41630;DHT22;27322;49.488;8.480;2022-11-30T02:51:09;8.70;99.90
41630;DHT22;27322;49.488;8.480;2022-11-30T02:53:36;8.70;99.90
41630;DHT22;27322;49.488;8.480;2022-11-30T02:56:03;8.70;99.90
41630;DHT22;27322;49.488;8.480;2022-11-30T02:58:29;8.70;99.90
41630;DHT22;27322;49.488;8.480;2022-11-30T03:00:54;8.70;99.90
41630;DHT22;27322;49.488;8.480;2022-11-30T03:03:20;8.70;99.90
41630;DHT22;27322;49.488;8.480;2022-11-30T03:05:46;8.70;99.90
41630;DHT22;27322;49.488;8.480;2022-11-30T03:08:12;8.70;99.90
41630;DHT22;27322;49.488;8.480;2022-11-30T03:10:37;8.70;99.90
41630;DHT22;27322;49.488;8.480;2022-11-30T03:13:03;8.70;99.90
41630;DHT22;27322;49.488;8.480;2022-11-30T03:15:28;8.70;99.90
41630;DHT22;27322;49.488;8.480;2022-11-30T03:17:54;8.70;99.90
41630;DHT22;27322;49.488;8.480;2022-11-30T03:20:20;8.70;99.90
41630;DHT22;27322;49.488;8.480;2022-11-30T03:22:46;8.70;99.90
41630;DHT22;27322;49.488;8.480;2022-11-30T03:25:11;8.70;99.90
41630;DHT22;27322;49.488;8.480;2022-11-30T03:27:37;8.70;99.90
41630;DHT22;27322;49.488;8.480;2022-11-30T03:30:03;8.70;99.90
41630;DHT22;27322;49.488;8.480;2022-11-30T03:32:28;8.70;99.90
41630;DHT22;27322;49.488;8.480;2022-11-30T03:34:55;8.70;99.90
41630;DHT22;27322;49.488;8.480;2022-11-30T03:37:21;8.70;99.90
41630;DHT22;27322;49.488;8.480;2022-11-30T03:39:47;8.70;99.90
41630;DHT22;27322;49.488;8.480;2022-11-30T03:42:13;8.70;99.90
41630;DHT22;27322;49.488;8.480;2022-11-30T03:44:38;8.70;99.90
41630;DHT22;27322;49.488;8.480;2022-11-30T03:47:04;8.70;99.90
41630;DHT22;27322;49.488;8.480;2022-11-30T03:49:30;8.70;99.90
41630;DHT22;27322;49.488;8.480;2022-11-30T03:51:55;8.70;99.90
41630;DHT22;27322;49.488;8.480;2022-11-30T03:54:21;8.70;99.90
41630;DHT22;27322;49.488;8.480;2022-11-30T03:56:46;8.70;99.90
41630;DHT22;27322;49.488;8.480;2022-11-30T03:59:12;8.70;99.90
41630;DHT22;27322;49.488;8.480;2022-11-30T04:01:38;8.70;99.90
41630;DHT22;27322;49.488;8.480;2022-11-30T04:04:05;8.70;99.90
41630;DHT22;27322;49.488;8.480;2022-11-30T04:06:32;8.70;99.90
41630;DHT22;27322;49.488;8.480;2022-11-30T04:08:58;8.70;99.90
41630;DHT22;27322;49.488;8.480;2022-11-30T04:11:24;8.70;99.90
41630;DHT22;27322;49.488;8.480;2022-11-30T04:13:49;8.70;99.90
41630;DHT22;27322;49.488;8.480;2022-11-30T04:16:15;8.60;99.90
41630;DHT22;27322;49.488;8.480;2022-11-30T04:18:40;8.70;99.90
41630;DHT22;27322;49.488;8.480;2022-11-30T04:21:06;8.60;99.90
41630;DHT22;27322;49.488;8.480;2022-11-30T04:23:38;8.70;99.90
41630;DHT22;27322;49.488;8.480;2022-11-30T04:26:05;8.70;99.90
41630;DHT22;27322;49.488;8.480;2022-11-30T04:28:31;8.70;99.90
41630;DHT22;27322;49.488;8.480;2022-11-30T04:30:57;8.70;99.90
41630;DHT22;27322;49.488;8.480;2022-11-30T04:33:24;8.70;99.90
41630;DHT22;27322;49.488;8.480;2022-11-30T04:35:54;8.70;99.90
41630;DHT22;27322;49.488;8.480;2022-11-30T04:38:21;8.70;99.90
41630;DHT22;27322;49.488;8.480;2022-11-30T04:40:46;8.70;99.90
41630;DHT22;27322;49.488;8.480;2022-11-30T04:43:12;8.70;99.90
41630;DHT22;27322;49.488;8.480;2022-11-30T04:45:38;8.70;99.90
41630;DHT22;27322;49.488;8.480;2022-11-30T04:48:05;8.60;99.90
41630;DHT22;27322;49.488;8.480;2022-11-30T04:50:31;8.60;99.90
41630;DHT22;27322;49.488;8.480;2022-11-30T04:52:56;8.70;99.90
41630;DHT22;27322;49.488;8.480;2022-11-30T04:55:22;8.60;99.90
41630;DHT22;27322;49.488;8.480;2022-11-30T04:57:48;8.70;99.90
41630;DHT22;27322;49.488;8.480;2022-11-30T05:00:15;8.70;99.90
41630;DHT22;27322;49.488;8.480;2022-11-30T05:02:41;8.70;99.90
41630;DHT22;27322;49.488;8.480;2022-11-30T05:05:08;8.60;99.90
41630;DHT22;27322;49.488;8.480;2022-11-30T05:07:33;8.70;99.90
41630;DHT22;27322;49.488;8.480;2022-11-30T05:09:59;8.60;99.90
41630;DHT22;27322;49.488;8.480;2022-11-30T05:12:24;8.70;99.90
41630;DHT22;27322;49.488;8.480;2022-11-30T05:14:50;8.70;99.90
41630;DHT22;27322;49.488;8.480;2022-11-30T05:17:16;8.70;99.90
41630;DHT22;27322;49.488;8.480;2022-11-30T05:19:41;8.70;99.90
41630;DHT22;27322;49.488;8.480;2022-11-30T05:22:07;8.60;99.90
41630;DHT22;27322;49.488;8.480;2022-11-30T05:24:32;8.70;99.90
41630;DHT22;27322;49.488;8.480;2022-11-30T05:26:58;8.70;99.90
41630;DHT22;27322;49.488;8.480;2022-11-30T05:29:24;8.70;99.90
41630;DHT22;27322;49.488;8.480;2022-11-30T05:31:49;8.70;99.90
41630;DHT22;27322;49.488;8.480;2022-11-30T05:34:15;8.70;99.90
41630;DHT22;27322;49.488;8.480;2022-11-30T05:36:41;8.70;99.90
41630;DHT22;27322;49.488;8.480;2022-11-30T05:39:06;8.70;99.90
41630;DHT22;27322;49.488;8.480;2022-11-30T05:41:32;8.70;99.90
41630;DHT22;27322;49.488;8.480;2022-11-30T05:43:58;8.70;99.90
41630;DHT22;27322;49.488;8.480;2022-11-30T05:46:23;8.70;99.90
41630;DHT22;27322;49.488;8.480;2022-11-30T05:48:49;8.70;99.90
41630;DHT22;27322;49.488;8.480;2022-11-30T05:51:17;8.70;99.90
41630;DHT22;27322;49.488;8.480;2022-11-30T05:53:44;8.70;99.90
41630;DHT22;27322;49.488;8.480;2022-11-30T05:56:15;8.70;99.90
41630;DHT22;27322;49.488;8.480;2022-11-30T05:58:41;8.70;99.90
41630;DHT22;27322;49.488;8.480;2022-11-30T06:01:07;8.70;99.90
41630;DHT22;27322;49.488;8.480;2022-11-30T06:03:34;8.70;99.90
41630;DHT22;27322;49.488;8.480;2022-11-30T06:06:00;8.70;99.90
41630;DHT22;27322;49.488;8.480;2022-11-30T06:08:26;8.70;99.90
41630;DHT22;27322;49.488;8.480;2022-11-30T06:10:52;8.70;99.90
41630;DHT22;27322;49.488;8.480;2022-11-30T06:13:18;8.70;99.90
41630;DHT22;27322;49.488;8.480;2022-11-30T06:15:44;8.70;99.90
41630;DHT22;27322;49.488;8.480;2022-11-30T06:18:11;8.70;99.90
41630;DHT22;27322;49.488;8.480;2022-11-30T06:20:38;8.70;99.90
41630;DHT22;27322;49.488;8.480;2022-11-30T06:23:03;8.70;99.90
41630;DHT22;27322;49.488;8.480;2022-11-30T06:25:30;8.70;99.90
41630;DHT22;27322;49.488;8.480;2022-11-30T06:27:55;8.70;99.90
41630;DHT22;27322;49.488;8.480;2022-11-30T06:30:21;8.70;99.90
41630;DHT22;27322;49.488;8.480;2022-11-30T06:32:49;8.70;99.90
41630;DHT22;27322;49.488;8.480;2022-11-30T06:35:14;8.80;99.90
41630;DHT22;27322;49.488;8.480;2022-11-30T06:37:41;8.80;99.90
41630;DHT22;27322;49.488;8.480;2022-11-30T06:40:08;8.80;99.90
41630;DHT22;27322;49.488;8.480;2022-11-30T06:42:34;8.70;99.90
41630;DHT22;27322;49.488;8.480;2022-11-30T06:45:01;8.80;99.90
41630;DHT22;27322;49.488;8.480;2022-11-30T06:47:27;8.80;99.90
41630;DHT22;27322;49.488;8.480;2022-11-30T06:49:53;8.80;99.90
41630;DHT22;27322;49.488;8.480;2022-11-30T06:52:18;8.70;99.90
41630;DHT22;27322;49.488;8.480;2022-11-30T06:54:44;8.80;99.90
41630;DHT22;27322;49.488;8.480;2022-11-30T06:57:10;8.70;99.90
41630;DHT22;27322;49.488;8.480;2022-11-30T06:59:35;8.70;99.90
41630;DHT22;27322;49.488;8.480;2022-11-30T07:02:14;8.70;99.90
41630;DHT22;27322;49.488;8.480;2022-11-30T07:04:40;8.80;99.90
41630;DHT22;27322;49.488;8.480;2022-11-30T07:07:06;8.80;99.90
41630;DHT22;27322;49.488;8.480;2022-11-30T07:09:33;8.80;99.90
41630;DHT22;27322;49.488;8.480;2022-11-30T07:11:59;8.80;99.90
41630;DHT22;27322;49.488;8.480;2022-11-30T07:14:25;8.80;99.90
41630;DHT22;27322;49.488;8.480;2022-11-30T07:16:51;8.80;99.90
41630;DHT22;27322;49.488;8.480;2022-11-30T07:19:16;8.80;99.90
41630;DHT22;27322;49.488;8.480;2022-11-30T07:21:42;8.80;99.90
41630;DHT22;27322;49.488;8.480;2022-11-30T07:24:10;8.80;99.90
41630;DHT22;27322;49.488;8.480;2022-11-30T07:26:54;8.80;99.90
41630;DHT22;27322;49.488;8.480;2022-11-30T07:29:20;8.70;99.90
41630;DHT22;27322;49.488;8.480;2022-11-30T07:31:49;8.80;99.90
41630;DHT22;27322;49.488;8.480;2022-11-30T07:34:16;8.70;99.90
41630;DHT22;27322;49.488;8.480;2022-11-30T07:36:42;8.70;99.90
41630;DHT22;27322;49.488;8.480;2022-11-30T07:39:08;8.80;99.90
41630;DHT22;27322;49.488;8.480;2022-11-30T07:41:34;8.70;99.90
41630;DHT22;27322;49.488;8.480;2022-11-30T07:43:59;8.80;99.90
41630;DHT22;27322;49.488;8.480;2022-11-30T07:46:25;8.80;99.90
41630;DHT22;27322;49.488;8.480;2022-11-30T07:48:51;8.80;99.90
41630;DHT22;27322;49.488;8.480;2022-11-30T07:51:21;8.80;99.90
41630;DHT22;27322;49.488;8.480;2022-11-30T07:53:47;8.80;99.90
41630;DHT22;27322;49.488;8.480;2022-11-30T07:56:15;8.80;99.90
41630;DHT22;27322;49.488;8.480;2022-11-30T07:58:41;8.80;99.90
41630;DHT22;27322;49.488;8.480;2022-11-30T08:01:09;8.80;99.90
41630;DHT22;27322;49.488;8.480;2022-11-30T08:03:35;8.80;99.90
41630;DHT22;27322;49.488;8.480;2022-11-30T08:08:33;8.90;99.90
41630;DHT22;27322;49.488;8.480;2022-11-30T08:10:59;8.90;99.90
41630;DHT22;27322;49.488;8.480;2022-11-30T08:13:25;8.90;99.90
41630;DHT22;27322;49.488;8.480;2022-11-30T08:15:52;8.90;99.90
41630;DHT22;27322;49.488;8.480;2022-11-30T08:18:18;8.90;99.90
41630;DHT22;27322;49.488;8.480;2022-11-30T08:20:44;8.90;99.90
41630;DHT22;27322;49.488;8.480;2022-11-30T08:23:10;8.90;99.90
41630;DHT22;27322;49.488;8.480;2022-11-30T08:25:37;8.90;99.90
41630;DHT22;27322;49.488;8.480;2022-11-30T08:28:03;8.90;99.90
41630;DHT22;27322;49.488;8.480;2022-11-30T08:30:29;9.00;99.90
41630;DHT22;27322;49.488;8.480;2022-11-30T08:32:55;8.90;99.90
41630;DHT22;27322;49.488;8.480;2022-11-30T08:35:21;8.90;99.90
41630;DHT22;27322;49.488;8.480;2022-11-30T08:37:47;8.90;99.90
41630;DHT22;27322;49.488;8.480;2022-11-30T08:40:12;8.90;99.90
41630;DHT22;27322;49.488;8.480;2022-11-30T08:42:38;8.90;99.90
41630;DHT22;27322;49.488;8.480;2022-11-30T08:45:04;8.90;99.90
41630;DHT22;27322;49.488;8.480;2022-11-30T08:47:30;8.90;99.90
41630;DHT22;27322;49.488;8.480;2022-11-30T08:49:56;8.90;99.90
41630;DHT22;27322;49.488;8.480;2022-11-30T08:52:23;8.90;99.90
41630;DHT22;27322;49.488;8.480;2022-11-30T08:54:49;9.00;99.90
41630;DHT22;27322;49.488;8.480;2022-11-30T08:57:16;8.90;99.90
41630;DHT22;27322;49.488;8.480;2022-11-30T08:59:42;9.00;99.90
41630;DHT22;27322;49.488;8.480;2022-11-30T09:02:13;9.00;99.90
41630;DHT22;27322;49.488;8.480;2022-11-30T09:04:41;9.00;99.90
41630;DHT22;27322;49.488;8.480;2022-11-30T09:07:07;9.00;99.90
41630;DHT22;27322;49.488;8.480;2022-11-30T09:09:34;9.00;99.90
41630;DHT22;27322;49.488;8.480;2022-11-30T09:11:59;9.00;99.90
41630;DHT22;27322;49.488;8.480;2022-11-30T09:14:25;9.00;99.90
41630;DHT22;27322;49.488;8.480;2022-11-30T09:16:52;9.00;99.90
41630;DHT22;27322;49.488;8.480;2022-11-30T09:19:18;9.00;99.90
41630;DHT22;27322;49.488;8.480;2022-11-30T09:21:44;9.00;99.90
41630;DHT22;27322;49.488;8.480;2022-11-30T09:24:10;9.00;99.90
41630;DHT22;27322;49.488;8.480;2022-11-30T09:26:35;9.00;99.90
41630;DHT22;27322;49.488;8.480;2022-11-30T09:29:01;9.00;99.90
41630;DHT22;27322;49.488;8.480;2022-11-30T09:31:27;9.00;99.90
41630;DHT22;27322;49.488;8.480;2022-11-30T09:33:55;9.00;99.90
41630;DHT22;27322;49.488;8.480;2022-11-30T09:36:22;9.00;99.90
41630;DHT22;27322;49.488;8.480;2022-11-30T09:38:48;9.00;99.90
41630;DHT22;27322;49.488;8.480;2022-11-30T09:46:38;9.00;99.90
41630;DHT22;27322;49.488;8.480;2022-11-30T09:49:20;9.00;99.90
41630;DHT22;27322;49.488;8.480;2022-11-30T09:51:48;9.00;99.90
41630;DHT22;27322;49.488;8.480;2022-11-30T09:54:19;9.00;99.90
41630;DHT22;27322;49.488;8.480;2022-11-30T09:56:45;9.10;99.90
41630;DHT22;27322;49.488;8.480;2022-11-30T09:59:26;9.00;99.90
41630;DHT22;27322;49.488;8.480;2022-11-30T10:01:55;9.00;99.90
41630;DHT22;27322;49.488;8.480;2022-11-30T10:07:11;9.00;99.90
41630;DHT22;27322;49.488;8.480;2022-11-30T10:12:38;9.10;99.90
41630;DHT22;27322;49.488;8.480;2022-11-30T10:18:12;9.10;99.90
41630;DHT22;27322;49.488;8.480;2022-11-30T10:20:54;9.00;99.90
41630;DHT22;27322;49.488;8.480;2022-11-30T10:23:43;9.10;99.90
41630;DHT22;27322;49.488;8.480;2022-11-30T10:26:14;9.10;99.90
41630;DHT22;27322;49.488;8.480;2022-11-30T10:28:51;9.10;99.90
41630;DHT22;27322;49.488;8.480;2022-11-30T10:31:19;9.10;99.90
41630;DHT22;27322;49.488;8.480;2022-11-30T10:33:51;9.10;99.90
41630;DHT22;27322;49.488;8.480;2022-11-30T10:38:46;9.10;99.90
41630;DHT22;27322;49.488;8.480;2022-11-30T10:41:23;9.20;99.90
41630;DHT22;27322;49.488;8.480;2022-11-30T10:43:55;9.20;99.90
41630;DHT22;27322;49.488;8.480;2022-11-30T10:46:33;9.20;99.90
41630;DHT22;27322;49.488;8.480;2022-11-30T10:49:06;9.30;99.90
41630;DHT22;27322;49.488;8.480;2022-11-30T10:51:37;9.30;99.90
41630;DHT22;27322;49.488;8.480;2022-11-30T10:54:13;9.30;99.90
41630;DHT22;27322;49.488;8.480;2022-11-30T10:56:39;9.40;99.90
41630;DHT22;27322;49.488;8.480;2022-11-30T10:59:25;9.40;99.90
41630;DHT22;27322;49.488;8.480;2022-11-30T11:01:52;9.40;99.90
41630;DHT22;27322;49.488;8.480;2022-11-30T11:04:20;9.40;99.90
41630;DHT22;27322;49.488;8.480;2022-11-30T11:09:38;9.40;99.90
41630;DHT22;27322;49.488;8.480;2022-11-30T11:14:32;9.40;99.90
41630;DHT22;27322;49.488;8.480;2022-11-30T11:19:36;9.40;99.90
41630;DHT22;27322;49.488;8.480;2022-11-30T11:22:05;9.40;99.90
41630;DHT22;27322;49.488;8.480;2022-11-30T11:24:32;9.40;99.90
41630;DHT22;27322;49.488;8.480;2022-11-30T11:26:58;9.50;99.90
41630;DHT22;27322;49.488;8.480;2022-11-30T11:29:30;9.50;99.90
41630;DHT22;27322;49.488;8.480;2022-11-30T11:32:21;9.50;99.90
41630;DHT22;27322;49.488;8.480;2022-11-30T11:34:49;9.50;99.90
41630;DHT22;27322;49.488;8.480;2022-11-30T11:37:22;9.40;99.90
41630;DHT22;27322;49.488;8.480;2022-11-30T11:42:51;9.40;99.90
41630;DHT22;27322;49.488;8.480;2022-11-30T11:45:25;9.40;99.90
41630;DHT22;27322;49.488;8.480;2022-11-30T11:48:03;9.50;99.90
41630;DHT22;27322;49.488;8.480;2022-11-30T11:50:34;9.50;99.90
41630;DHT22;27322;49.488;8.480;2022-11-30T11:55:41;9.50;99.90
41630;DHT22;27322;49.488;8.480;2022-11-30T11:58:14;9.50;99.90
41630;DHT22;27322;49.488;8.480;2022-11-30T12:00:42;9.40;99.90
41630;DHT22;27322;49.488;8.480;2022-11-30T12:03:36;9.50;99.90
41630;DHT22;27322;49.488;8.480;2022-11-30T12:06:09;9.50;99.90
41630;DHT22;27322;49.488;8.480;2022-11-30T12:08:59;9.50;99.90
41630;DHT22;27322;49.488;8.480;2022-11-30T12:11:46;9.50;99.90
41630;DHT22;27322;49.488;8.480;2022-11-30T12:14:14;9.50;99.90
41630;DHT22;27322;49.488;8.480;2022-11-30T12:19:18;9.50;99.90
41630;DHT22;27322;49.488;8.480;2022-11-30T12:25:03;9.50;99.90
41630;DHT22;27322;49.488;8.480;2022-11-30T12:30:55;9.50;99.90
41630;DHT22;27322;49.488;8.480;2022-11-30T12:45:38;9.60;99.90
41630;DHT22;27322;49.488;8.480;2022-11-30T12:48:20;9.60;99.90
41630;DHT22;27322;49.488;8.480;2022-11-30T12:53:33;9.60;99.90
41630;DHT22;27322;49.488;8.480;2022-11-30T12:56:12;9.60;99.90
41630;DHT22;27322;49.488;8.480;2022-11-30T13:07:45;9.60;99.90
41630;DHT22;27322;49.488;8.480;2022-11-30T13:09:49;9.60;99.90
41630;DHT22;27322;49.488;8.480;2022-11-30T13:12:24;9.60;99.90
41630;DHT22;27322;49.488;8.480;2022-11-30T13:14:58;9.60;99.90
41630;DHT22;27322;49.488;8.480;2022-11-30T13:17:25;9.60;99.90
41630;DHT22;27322;49.488;8.480;2022-11-30T13:33:58;9.50;99.90
41630;DHT22;27322;49.488;8.480;2022-11-30T13:41:40;9.50;99.90
41630;DHT22;27322;49.488;8.480;2022-11-30T13:46:50;9.50;99.90
41630;DHT22;27322;49.488;8.480;2022-11-30T13:49:26;9.50;99.90
41630;DHT22;27322;49.488;8.480;2022-11-30T13:51:52;9.50;99.90
41630;DHT22;27322;49.488;8.480;2022-11-30T13:54:46;9.50;99.90
41630;DHT22;27322;49.488;8.480;2022-11-30T13:59:57;9.50;99.90
41630;DHT22;27322;49.488;8.480;2022-11-30T14:10:37;9.50;99.90
41630;DHT22;27322;49.488;8.480;2022-11-30T14:26:09;9.50;99.90
41630;DHT22;27322;49.488;8.480;2022-11-30T14:29:07;9.50;99.90
41630;DHT22;27322;49.488;8.480;2022-11-30T14:36:55;9.50;99.90
41630;DHT22;27322;49.488;8.480;2022-11-30T14:39:31;9.50;99.90
41630;DHT22;27322;49.488;8.480;2022-11-30T14:41:57;9.50;99.90
41630;DHT22;27322;49.488;8.480;2022-11-30T14:44:23;9.50;99.90
41630;DHT22;27322;49.488;8.480;2022-11-30T14:46:48;9.50;99.90
41630;DHT22;27322;49.488;8.480;2022-11-30T14:52:01;9.50;99.90
41630;DHT22;27322;49.488;8.480;2022-11-30T15:00:02;9.50;99.90
41630;DHT22;27322;49.488;8.480;2022-11-30T15:04:58;9.50;99.90
41630;DHT22;27322;49.488;8.480;2022-11-30T15:07:25;9.40;99.90
41630;DHT22;27322;49.488;8.480;2022-11-30T15:10:03;9.40;99.90
41630;DHT22;27322;49.488;8.480;2022-11-30T15:12:29;9.50;99.90
41630;DHT22;27322;49.488;8.480;2022-11-30T15:15:18;9.40;99.90
41630;DHT22;27322;49.488;8.480;2022-11-30T15:18:14;9.40;99.90
41630;DHT22;27322;49.488;8.480;2022-11-30T15:23:13;9.40;99.90
41630;DHT22;27322;49.488;8.480;2022-11-30T15:25:44;9.40;99.90
41630;DHT22;27322;49.488;8.480;2022-11-30T15:28:16;9.40;99.90
41630;DHT22;27322;49.488;8.480;2022-11-30T15:30:44;9.40;99.90
41630;DHT22;27322;49.488;8.480;2022-11-30T15:33:17;9.40;99.90
41630;DHT22;27322;49.488;8.480;2022-11-30T15:35:48;9.40;99.90
41630;DHT22;27322;49.488;8.480;2022-11-30T15:38:25;9.40;99.90
41630;DHT22;27322;49.488;8.480;2022-11-30T15:41:00;9.40;99.90
41630;DHT22;27322;49.488;8.480;2022-11-30T15:43:35;9.40;99.90
41630;DHT22;27322;49.488;8.480;2022-11-30T15:46:04;9.40;99.90
41630;DHT22;27322;49.488;8.480;2022-11-30T15:48:39;9.40;99.90
41630;DHT22;27322;49.488;8.480;2022-11-30T15:51:05;9.40;99.90
41630;DHT22;27322;49.488;8.480;2022-11-30T15:53:56;9.40;99.90
41630;DHT22;27322;49.488;8.480;2022-11-30T15:56:23;9.40;99.90
41630;DHT22;27322;49.488;8.480;2022-11-30T16:01:28;9.40;99.90
41630;DHT22;27322;49.488;8.480;2022-11-30T16:04:04;9.40;99.90
41630;DHT22;27322;49.488;8.480;2022-11-30T16:06:35;9.40;99.90
41630;DHT22;27322;49.488;8.480;2022-11-30T16:09:05;9.40;99.90
41630;DHT22;27322;49.488;8.480;2022-11-30T16:11:32;9.40;99.90
41630;DHT22;27322;49.488;8.480;2022-11-30T16:13:58;9.40;99.90
41630;DHT22;27322;49.488;8.480;2022-11-30T16:16:28;9.40;99.90
41630;DHT22;27322;49.488;8.480;2022-11-30T16:18:54;9.40;99.90
41630;DHT22;27322;49.488;8.480;2022-11-30T16:21:19;9.40;99.90
41630;DHT22;27322;49.488;8.480;2022-11-30T16:23:46;9.40;99.90
41630;DHT22;27322;49.488;8.480;2022-11-30T16:26:14;9.40;99.90
41630;DHT22;27322;49.488;8.480;2022-11-30T16:28:40;9.40;99.90
41630;DHT22;27322;49.488;8.480;2022-11-30T16:31:10;9.40;99.90
41630;DHT22;27322;49.488;8.480;2022-11-30T16:33:38;9.40;99.90
41630;DHT22;27322;49.488;8.480;2022-11-30T16:36:08;9.40;99.90
41630;DHT22;27322;49.488;8.480;2022-11-30T16:38:34;9.40;99.90
41630;DHT22;27322;49.488;8.480;2022-11-30T16:41:20;9.40;99.90
41630;DHT22;27322;49.488;8.480;2022-11-30T16:43:48;9.40;99.90
41630;DHT22;27322;49.488;8.480;2022-11-30T16:46:16;9.40;99.90
41630;DHT22;27322;49.488;8.480;2022-11-30T16:48:42;9.40;99.90
41630;DHT22;27322;49.488;8.480;2022-11-30T16:53:42;9.30;99.90
41630;DHT22;27322;49.488;8.480;2022-11-30T16:56:11;9.30;99.90
41630;DHT22;27322;49.488;8.480;2022-11-30T16:58:37;9.40;99.90
41630;DHT22;27322;49.488;8.480;2022-11-30T17:01:04;9.40;99.90
41630;DHT22;27322;49.488;8.480;2022-11-30T17:03:32;9.30;99.90
41630;DHT22;27322;49.488;8.480;2022-11-30T17:05:59;9.30;99.90
41630;DHT22;27322;49.488;8.480;2022-11-30T17:08:25;9.30;99.90
41630;DHT22;27322;49.488;8.480;2022-11-30T17:10:52;9.30;99.90
41630;DHT22;27322;49.488;8.480;2022-11-30T17:13:19;9.30;99.90
41630;DHT22;27322;49.488;8.480;2022-11-30T17:15:45;9.30;99.90
41630;DHT22;27322;49.488;8.480;2022-11-30T17:18:11;9.30;99.90
41630;DHT22;27322;49.488;8.480;2022-11-30T17:20:37;9.30;99.90
41630;DHT22;27322;49.488;8.480;2022-11-30T17:23:04;9.30;99.90
41630;DHT22;27322;49.488;8.480;2022-11-30T17:25:30;9.30;99.90
41630;DHT22;27322;49.488;8.480;2022-11-30T17:27:55;9.30;99.90
41630;DHT22;27322;49.488;8.480;2022-11-30T17:30:21;9.30;99.90
41630;DHT22;27322;49.488;8.480;2022-11-30T17:32:48;9.30;99.90
41630;DHT22;27322;49.488;8.480;2022-11-30T17:35:15;9.30;99.90
41630;DHT22;27322;49.488;8.480;2022-11-30T17:37:41;9.20;99.90
41630;DHT22;27322;49.488;8.480;2022-11-30T17:40:08;9.20;99.90
41630;DHT22;27322;49.488;8.480;2022-11-30T17:42:37;9.20;99.90
41630;DHT22;27322;49.488;8.480;2022-11-30T17:45:03;9.20;99.90
41630;DHT22;27322;49.488;8.480;2022-11-30T17:47:29;9.20;99.90
41630;DHT22;27322;49.488;8.480;2022-11-30T17:49:54;9.20;99.90
41630;DHT22;27322;49.488;8.480;2022-11-30T17:52:21;9.30;99.90
41630;DHT22;27322;49.488;8.480;2022-11-30T17:54:46;9.30;99.90
41630;DHT22;27322;49.488;8.480;2022-11-30T17:57:12;9.20;99.90
41630;DHT22;27322;49.488;8.480;2022-11-30T17:59:37;9.30;99.90
41630;DHT22;27322;49.488;8.480;2022-11-30T18:02:03;9.30;99.90
41630;DHT22;27322;49.488;8.480;2022-11-30T18:04:29;9.30;99.90
41630;DHT22;27322;49.488;8.480;2022-11-30T18:06:54;9.30;99.90
41630;DHT22;27322;49.488;8.480;2022-11-30T18:09:20;9.30;99.90
41630;DHT22;27322;49.488;8.480;2022-11-30T18:11:48;9.30;99.90
41630;DHT22;27322;49.488;8.480;2022-11-30T18:14:13;9.30;99.90
41630;DHT22;27322;49.488;8.480;2022-11-30T18:16:39;9.30;99.90
41630;DHT22;27322;49.488;8.480;2022-11-30T18:19:05;9.30;99.90
41630;DHT22;27322;49.488;8.480;2022-11-30T18:21:36;9.30;99.90
41630;DHT22;27322;49.488;8.480;2022-11-30T18:24:03;9.30;99.90
41630;DHT22;27322;49.488;8.480;2022-11-30T18:26:29;9.30;99.90